sensor_id;sensor_type;location;lat;lon;timestamp;pressure;altitude;pressure_sealevel;temperature;humidity
60373;BME280;46216;52.220;5.134;2023-04-19T00:00:37;102946.97;;;9.42;100.00
60373;BME280;46216;52.220;5.134;2023-04-19T00:03:04;102952.41;;;9.39;100.00
60373;BME280;46216;52.220;5.134;2023-04-19T00:05:30;102950.72;;;9.37;100.00
60373;BME280;46216;52.220;5.134;2023-04-19T00:07:56;102951.69;;;9.34;100.00
60373;BME280;46216;52.220;5.134;2023-04-19T00:10:21;102950.03;;;9.30;100.00
60373;BME280;46216;52.220;5.134;2023-04-19T00:12:48;102952.69;;;9.30;100.00
60373;BME280;46216;52.220;5.134;2023-04-19T00:15:13;102949.25;;;9.28;100.00
60373;BME280;46216;52.220;5.134;2023-04-19T00:17:39;102952.00;;;9.25;100.00
60373;BME280;46216;52.220;5.134;2023-04-19T00:20:04;102946.72;;;9.23;100.00
60373;BME280;46216;52.220;5.134;2023-04-19T00:22:30;102955.69;;;9.21;100.00
60373;BME280;46216;52.220;5.134;2023-04-19T00:24:55;102956.69;;;9.17;100.00
60373;BME280;46216;52.220;5.134;2023-04-19T00:27:22;102947.81;;;9.18;100.00
60373;BME280;46216;52.220;5.134;2023-04-19T00:29:47;102950.41;;;9.19;100.00
60373;BME280;46216;52.220;5.134;2023-04-19T00:32:12;102950.47;;;9.18;100.00
60373;BME280;46216;52.220;5.134;2023-04-19T00:34:38;102955.06;;;9.13;100.00
60373;BME280;46216;52.220;5.134;2023-04-19T00:37:03;102954.19;;;9.12;100.00
60373;BME280;46216;52.220;5.134;2023-04-19T00:39:29;102943.72;;;9.08;100.00
60373;BME280;46216;52.220;5.134;2023-04-19T00:41:55;102949.84;;;9.10;100.00
60373;BME280;46216;52.220;5.134;2023-04-19T00:44:22;102941.19;;;9.03;100.00
60373;BME280;46216;52.220;5.134;2023-04-19T00:46:47;102934.91;;;9.06;100.00
60373;BME280;46216;52.220;5.134;2023-04-19T00:49:13;102928.72;;;9.05;100.00
60373;BME280;46216;52.220;5.134;2023-04-19T00:51:39;102937.56;;;9.06;100.00
60373;BME280;46216;52.220;5.134;2023-04-19T00:54:05;102928.88;;;9.00;100.00
60373;BME280;46216;52.220;5.134;2023-04-19T00:56:32;102935.81;;;9.05;100.00
60373;BME280;46216;52.220;5.134;2023-04-19T00:58:58;102938.59;;;9.02;100.00
60373;BME280;46216;52.220;5.134;2023-04-19T01:01:23;102942.19;;;8.99;100.00
60373;BME280;46216;52.220;5.134;2023-04-19T01:03:49;102938.63;;;9.00;100.00
60373;BME280;46216;52.220;5.134;2023-04-19T01:06:14;102934.22;;;8.99;100.00
60373;BME280;46216;52.220;5.134;2023-04-19T01:08:40;102935.09;;;8.99;100.00
60373;BME280;46216;52.220;5.134;2023-04-19T01:11:05;102933.28;;;9.00;100.00
60373;BME280;46216;52.220;5.134;2023-04-19T01:13:32;102938.63;;;9.00;100.00
60373;BME280;46216;52.220;5.134;2023-04-19T01:15:58;102943.94;;;9.00;100.00
60373;BME280;46216;52.220;5.134;2023-04-19T01:18:23;102944.84;;;9.00;100.00
60373;BME280;46216;52.220;5.134;2023-04-19T01:20:50;102944.84;;;9.00;100.00
60373;BME280;46216;52.220;5.134;2023-04-19T01:23:15;102936.03;;;8.98;100.00
60373;BME280;46216;52.220;5.134;2023-04-19T01:25:40;102941.44;;;8.95;100.00
60373;BME280;46216;52.220;5.134;2023-04-19T01:28:06;102936.97;;;8.96;100.00
60373;BME280;46216;52.220;5.134;2023-04-19T01:30:31;102939.75;;;8.93;100.00
60373;BME280;46216;52.220;5.134;2023-04-19T01:32:57;102942.31;;;8.96;100.00
60373;BME280;46216;52.220;5.134;2023-04-19T01:35:22;102934.28;;;8.97;100.00
60373;BME280;46216;52.220;5.134;2023-04-19T01:37:47;102943.16;;;8.96;100.00
60373;BME280;46216;52.220;5.134;2023-04-19T01:40:13;102941.53;;;8.92;100.00
60373;BME280;46216;52.220;5.134;2023-04-19T01:42:38;102941.63;;;8.89;100.00
60373;BME280;46216;52.220;5.134;2023-04-19T01:45:04;102942.56;;;8.88;100.00
60373;BME280;46216;52.220;5.134;2023-04-19T01:47:30;102939.03;;;8.88;100.00
60373;BME280;46216;52.220;5.134;2023-04-19T01:49:55;102943.38;;;8.90;100.00
60373;BME280;46216;52.220;5.134;2023-04-19T01:52:20;102934.56;;;8.88;100.00
60373;BME280;46216;52.220;5.134;2023-04-19T01:54:46;102934.50;;;8.90;100.00
60373;BME280;46216;52.220;5.134;2023-04-19T01:57:11;102943.38;;;8.90;100.00
60373;BME280;46216;52.220;5.134;2023-04-19T01:59:36;102946.06;;;8.89;100.00
60373;BME280;46216;52.220;5.134;2023-04-19T02:02:05;102944.25;;;8.91;100.00
60373;BME280;46216;52.220;5.134;2023-04-19T02:04:32;102949.59;;;8.89;100.00
60373;BME280;46216;52.220;5.134;2023-04-19T02:06:58;102944.25;;;8.91;100.00
60373;BME280;46216;52.220;5.134;2023-04-19T02:09:23;102946.84;;;8.92;100.00
60373;BME280;46216;52.220;5.134;2023-04-19T02:11:49;102943.06;;;8.99;100.00
60373;BME280;46216;52.220;5.134;2023-04-19T02:14:14;102945.69;;;9.01;100.00
60373;BME280;46216;52.220;5.134;2023-04-19T02:16:39;102945.63;;;9.03;100.00
60373;BME280;46216;52.220;5.134;2023-04-19T02:19:04;102945.44;;;9.09;100.00
60373;BME280;46216;52.220;5.134;2023-04-19T02:21:30;102944.31;;;9.16;100.00
60373;BME280;46216;52.220;5.134;2023-04-19T02:23:56;102945.94;;;9.20;100.00
60373;BME280;46216;52.220;5.134;2023-04-19T02:26:21;102940.59;;;9.21;100.00
60373;BME280;46216;52.220;5.134;2023-04-19T02:28:50;102941.28;;;9.27;100.00
60373;BME280;46216;52.220;5.134;2023-04-19T02:31:16;102939.47;;;9.29;100.00
60373;BME280;46216;52.220;5.134;2023-04-19T02:33:41;102944.69;;;9.32;100.00
60373;BME280;46216;52.220;5.134;2023-04-19T02:36:06;102949.13;;;9.31;100.00
60373;BME280;46216;52.220;5.134;2023-04-19T02:38:32;102939.09;;;9.39;100.00
60373;BME280;46216;52.220;5.134;2023-04-19T02:40:57;102943.38;;;9.43;100.00
60373;BME280;46216;52.220;5.134;2023-04-19T02:43:24;102946.72;;;9.50;100.00
60373;BME280;46216;52.220;5.134;2023-04-19T02:45:50;102951.88;;;9.55;100.00
60373;BME280;46216;52.220;5.134;2023-04-19T02:48:15;102958.13;;;9.54;100.00
60373;BME280;46216;52.220;5.134;2023-04-19T02:50:40;102950.03;;;9.57;100.00
60373;BME280;46216;52.220;5.134;2023-04-19T02:53:06;102948.97;;;9.62;100.00
60373;BME280;46216;52.220;5.134;2023-04-19T02:55:31;102950.75;;;9.62;100.00
60373;BME280;46216;52.220;5.134;2023-04-19T02:57:57;102944.41;;;9.66;100.00
60373;BME280;46216;52.220;5.134;2023-04-19T03:00:22;102947.84;;;9.68;100.00
60373;BME280;46216;52.220;5.134;2023-04-19T03:02:47;102958.50;;;9.68;100.00
60373;BME280;46216;52.220;5.134;2023-04-19T03:05:13;102952.16;;;9.72;100.00
60373;BME280;46216;52.220;5.134;2023-04-19T03:07:38;102947.53;;;9.77;100.00
60373;BME280;46216;52.220;5.134;2023-04-19T03:10:04;102947.44;;;9.80;100.00
60373;BME280;46216;52.220;5.134;2023-04-19T03:12:29;102944.75;;;9.80;100.00
60373;BME280;46216;52.220;5.134;2023-04-19T03:14:54;102945.59;;;9.82;100.00
60373;BME280;46216;52.220;5.134;2023-04-19T03:17:20;102943.72;;;9.84;100.00
60373;BME280;46216;52.220;5.134;2023-04-19T03:19:45;102942.81;;;9.85;100.00
60373;BME280;46216;52.220;5.134;2023-04-19T03:22:10;102944.47;;;9.88;100.00
60373;BME280;46216;52.220;5.134;2023-04-19T03:24:36;102948.91;;;9.89;100.00
60373;BME280;46216;52.220;5.134;2023-04-19T03:27:02;102957.66;;;9.92;100.00
60373;BME280;46216;52.220;5.134;2023-04-19T03:29:27;102945.25;;;9.91;100.00
60373;BME280;46216;52.220;5.134;2023-04-19T03:31:53;102945.19;;;9.93;100.00
60373;BME280;46216;52.220;5.134;2023-04-19T03:34:18;102939.81;;;9.94;100.00
60373;BME280;46216;52.220;5.134;2023-04-19T03:36:43;102945.03;;;9.98;100.00
60373;BME280;46216;52.220;5.134;2023-04-19T03:39:09;102945.88;;;9.98;100.00
60373;BME280;46216;52.220;5.134;2023-04-19T03:41:34;102945.13;;;9.94;100.00
60373;BME280;46216;52.220;5.134;2023-04-19T03:43:59;102940.75;;;9.93;100.00
60373;BME280;46216;52.220;5.134;2023-04-19T03:46:25;102945.13;;;9.94;100.00
60373;BME280;46216;52.220;5.134;2023-04-19T03:48:50;102944.25;;;9.94;100.00
60373;BME280;46216;52.220;5.134;2023-04-19T03:51:16;102944.34;;;9.92;100.00
60373;BME280;46216;52.220;5.134;2023-04-19T03:53:42;102929.25;;;9.91;100.00
60373;BME280;46216;52.220;5.134;2023-04-19T03:56:07;102945.13;;;9.94;100.00
60373;BME280;46216;52.220;5.134;2023-04-19T03:58:33;102938.16;;;9.92;100.00
60373;BME280;46216;52.220;5.134;2023-04-19T04:00:58;102941.56;;;9.95;100.00
60373;BME280;46216;52.220;5.134;2023-04-19T04:03:24;102940.09;;;9.87;100.00
60373;BME280;46216;52.220;5.134;2023-04-19T04:05:49;102937.59;;;9.82;100.00
60373;BME280;46216;52.220;5.134;2023-04-19T04:08:14;102945.59;;;9.82;100.00
60373;BME280;46216;52.220;5.134;2023-04-19T04:10:40;102930.75;;;9.75;100.00
60373;BME280;46216;52.220;5.134;2023-04-19T04:13:05;102935.16;;;9.76;100.00
60373;BME280;46216;52.220;5.134;2023-04-19T04:15:30;102939.06;;;9.66;100.00
60373;BME280;46216;52.220;5.134;2023-04-19T04:17:56;102942.88;;;9.59;100.00
60373;BME280;46216;52.220;5.134;2023-04-19T04:20:21;102950.13;;;9.54;100.00
60373;BME280;46216;52.220;5.134;2023-04-19T04:22:46;102944.91;;;9.51;100.00
60373;BME280;46216;52.220;5.134;2023-04-19T04:25:13;102942.31;;;9.49;100.00
60373;BME280;46216;52.220;5.134;2023-04-19T04:27:40;102948.50;;;9.50;100.00
60373;BME280;46216;52.220;5.134;2023-04-19T04:30:07;102941.06;;;9.34;100.00
60373;BME280;46216;52.220;5.134;2023-04-19T04:32:33;102954.38;;;9.34;100.00
60373;BME280;46216;52.220;5.134;2023-04-19T04:35:08;102935.84;;;9.31;100.00
60373;BME280;46216;52.220;5.134;2023-04-19T04:37:34;102947.59;;;9.24;100.00
60373;BME280;46216;52.220;5.134;2023-04-19T04:40:01;102949.19;;;9.30;100.00
60373;BME280;46216;52.220;5.134;2023-04-19T04:42:26;102946.72;;;9.23;100.00
60373;BME280;46216;52.220;5.134;2023-04-19T04:44:52;102947.59;;;9.24;100.00
60373;BME280;46216;52.220;5.134;2023-04-19T04:47:19;102937.94;;;9.21;100.00
60373;BME280;46216;52.220;5.134;2023-04-19T04:49:45;102947.75;;;9.19;100.00
60373;BME280;46216;52.220;5.134;2023-04-19T04:52:10;102948.78;;;9.15;100.00
60373;BME280;46216;52.220;5.134;2023-04-19T04:54:36;102937.66;;;9.03;100.00
60373;BME280;46216;52.220;5.134;2023-04-19T04:57:01;102946.41;;;9.06;100.00
60373;BME280;46216;52.220;5.134;2023-04-19T04:59:26;102944.84;;;9.00;100.00
60373;BME280;46216;52.220;5.134;2023-04-19T05:01:52;102942.28;;;8.97;100.00
60373;BME280;46216;52.220;5.134;2023-04-19T05:04:17;102950.38;;;8.93;100.00
60373;BME280;46216;52.220;5.134;2023-04-19T05:06:43;102949.47;;;8.94;100.00
60373;BME280;46216;52.220;5.134;2023-04-19T05:09:09;102947.81;;;8.90;100.00
60373;BME280;46216;52.220;5.134;2023-04-19T05:11:34;102949.56;;;8.91;100.00
60373;BME280;46216;52.220;5.134;2023-04-19T05:14:00;102952.25;;;8.89;100.00
60373;BME280;46216;52.220;5.134;2023-04-19T05:16:26;102948.72;;;8.90;100.00
60373;BME280;46216;52.220;5.134;2023-04-19T05:18:51;102941.63;;;8.89;100.00
60373;BME280;46216;52.220;5.134;2023-04-19T05:21:16;102942.84;;;8.79;100.00
60373;BME280;46216;52.220;5.134;2023-04-19T05:23:42;102944.50;;;8.83;100.00
60373;BME280;46216;52.220;5.134;2023-04-19T05:26:07;102949.84;;;8.82;100.00
60373;BME280;46216;52.220;5.134;2023-04-19T05:28:36;102950.72;;;8.82;100.00
60373;BME280;46216;52.220;5.134;2023-04-19T05:31:02;102950.63;;;8.85;100.00
60373;BME280;46216;52.220;5.134;2023-04-19T05:33:27;102952.47;;;8.83;100.00
60373;BME280;46216;52.220;5.134;2023-04-19T05:35:53;102954.25;;;8.83;100.00
60373;BME280;46216;52.220;5.134;2023-04-19T05:38:18;102948.22;;;8.77;100.00
60373;BME280;46216;52.220;5.134;2023-04-19T05:40:43;102942.91;;;8.77;100.00
60373;BME280;46216;52.220;5.134;2023-04-19T05:43:08;102940.41;;;8.73;100.00
60373;BME280;46216;52.220;5.134;2023-04-19T05:45:34;102940.41;;;8.73;100.00
60373;BME280;46216;52.220;5.134;2023-04-19T05:48:00;102938.34;;;8.81;100.00
60373;BME280;46216;52.220;5.134;2023-04-19T05:50:25;102934.94;;;8.77;100.00
60373;BME280;46216;52.220;5.134;2023-04-19T05:52:50;102941.97;;;8.79;100.00
60373;BME280;46216;52.220;5.134;2023-04-19T05:55:16;102927.91;;;8.75;100.00
60373;BME280;46216;52.220;5.134;2023-04-19T05:57:42;102931.41;;;8.77;100.00
60373;BME280;46216;52.220;5.134;2023-04-19T06:00:08;102930.41;;;8.80;100.00
60373;BME280;46216;52.220;5.134;2023-04-19T06:02:34;102927.72;;;8.81;100.00
60373;BME280;46216;52.220;5.134;2023-04-19T06:04:59;102924.00;;;8.87;100.00
60373;BME280;46216;52.220;5.134;2023-04-19T06:07:28;102932.94;;;8.84;100.00
60373;BME280;46216;52.220;5.134;2023-04-19T06:09:53;102926.34;;;8.96;100.00
60373;BME280;46216;52.220;5.134;2023-04-19T06:12:19;102932.44;;;8.99;100.00
60373;BME280;46216;52.220;5.134;2023-04-19T06:14:44;102924.25;;;9.06;100.00
60373;BME280;46216;52.220;5.134;2023-04-19T06:17:09;102932.03;;;9.12;100.00
60373;BME280;46216;52.220;5.134;2023-04-19T06:19:35;102923.03;;;9.16;100.00
60373;BME280;46216;52.220;5.134;2023-04-19T06:22:01;102925.69;;;9.16;100.00
60373;BME280;46216;52.220;5.134;2023-04-19T06:24:28;102922.84;;;9.22;100.00
60373;BME280;46216;52.220;5.134;2023-04-19T06:26:56;102917.22;;;9.31;100.00
60373;BME280;46216;52.220;5.134;2023-04-19T06:29:31;102925.09;;;9.34;100.00
60373;BME280;46216;52.220;5.134;2023-04-19T06:31:58;102920.56;;;9.36;100.00
60373;BME280;46216;52.220;5.134;2023-04-19T06:34:29;102928.63;;;9.35;100.00
60373;BME280;46216;52.220;5.134;2023-04-19T06:36:56;102927.53;;;9.40;100.00
60373;BME280;46216;52.220;5.134;2023-04-19T06:39:26;102932.03;;;9.38;100.00
60373;BME280;46216;52.220;5.134;2023-04-19T06:41:53;102917.59;;;9.45;100.00
60373;BME280;46216;52.220;5.134;2023-04-19T06:44:25;102934.50;;;9.44;100.00
60373;BME280;46216;52.220;5.134;2023-04-19T06:46:52;102919.59;;;9.39;100.00
60373;BME280;46216;52.220;5.134;2023-04-19T06:49:17;102915.97;;;9.41;100.00
60373;BME280;46216;52.220;5.134;2023-04-19T06:51:42;102926.44;;;9.46;100.00
60373;BME280;46216;52.220;5.134;2023-04-19T06:54:08;102915.97;;;9.41;100.00
60373;BME280;46216;52.220;5.134;2023-04-19T06:56:44;102927.00;;;9.56;100.00
60373;BME280;46216;52.220;5.134;2023-04-19T06:59:15;102917.97;;;9.60;100.00
60373;BME280;46216;52.220;5.134;2023-04-19T07:01:41;102914.16;;;9.67;100.00
60373;BME280;46216;52.220;5.134;2023-04-19T07:04:07;102919.28;;;9.73;100.00
60373;BME280;46216;52.220;5.134;2023-04-19T07:06:36;102914.88;;;9.72;100.00
60373;BME280;46216;52.220;5.134;2023-04-19T07:09:02;102918.84;;;9.85;100.00
60373;BME280;46216;52.220;5.134;2023-04-19T07:11:28;102923.25;;;9.86;100.00
60373;BME280;46216;52.220;5.134;2023-04-19T07:13:54;102919.44;;;9.93;100.00
60373;BME280;46216;52.220;5.134;2023-04-19T07:16:19;102925.47;;;9.99;100.00
60373;BME280;46216;52.220;5.134;2023-04-19T07:18:44;102921.47;;;10.10;100.00
60373;BME280;46216;52.220;5.134;2023-04-19T07:21:10;102917.47;;;10.22;100.00
60373;BME280;46216;52.220;5.134;2023-04-19T07:23:36;102910.22;;;10.27;100.00
60373;BME280;46216;52.220;5.134;2023-04-19T07:26:01;102907.25;;;10.35;100.00
60373;BME280;46216;52.220;5.134;2023-04-19T07:28:30;102914.94;;;10.42;100.00
60373;BME280;46216;52.220;5.134;2023-04-19T07:30:56;102917.47;;;10.46;100.00
60373;BME280;46216;52.220;5.134;2023-04-19T07:33:22;102910.09;;;10.52;100.00
60373;BME280;46216;52.220;5.134;2023-04-19T07:35:47;102914.91;;;10.66;100.00
60373;BME280;46216;52.220;5.134;2023-04-19T07:38:13;102919.06;;;10.73;100.00
60373;BME280;46216;52.220;5.134;2023-04-19T07:40:38;102907.78;;;10.67;100.00
60373;BME280;46216;52.220;5.134;2023-04-19T07:43:03;102904.00;;;10.72;100.00
60373;BME280;46216;52.220;5.134;2023-04-19T07:45:32;102922.28;;;10.81;100.00
60373;BME280;46216;52.220;5.134;2023-04-19T07:47:57;102915.09;;;10.83;100.00
60373;BME280;46216;52.220;5.134;2023-04-19T07:50:24;102908.22;;;10.78;100.00
60373;BME280;46216;52.220;5.134;2023-04-19T07:52:50;102918.19;;;10.73;100.00
60373;BME280;46216;52.220;5.134;2023-04-19T07:55:16;102916.97;;;10.81;100.00
60373;BME280;46216;52.220;5.134;2023-04-19T07:57:41;102911.50;;;10.84;100.00
60373;BME280;46216;52.220;5.134;2023-04-19T08:00:10;102918.22;;;10.95;100.00
60373;BME280;46216;52.220;5.134;2023-04-19T08:02:37;102917.75;;;11.05;100.00
60373;BME280;46216;52.220;5.134;2023-04-19T08:05:02;102922.34;;;11.02;100.00
60373;BME280;46216;52.220;5.134;2023-04-19T08:07:28;102906.13;;;11.06;100.00
60373;BME280;46216;52.220;5.134;2023-04-19T08:09:53;102919.19;;;11.14;100.00
60373;BME280;46216;52.220;5.134;2023-04-19T08:12:19;102917.91;;;11.23;100.00
60373;BME280;46216;52.220;5.134;2023-04-19T08:14:44;102915.44;;;11.18;99.13
60373;BME280;46216;52.220;5.134;2023-04-19T08:17:10;102918.41;;;11.32;99.31
60373;BME280;46216;52.220;5.134;2023-04-19T08:19:36;102914.00;;;11.52;99.54
60373;BME280;46216;52.220;5.134;2023-04-19T08:22:01;102920.94;;;11.56;99.38
60373;BME280;46216;52.220;5.134;2023-04-19T08:24:28;102919.22;;;11.55;97.88
60373;BME280;46216;52.220;5.134;2023-04-19T08:26:55;102911.47;;;11.49;93.65
60373;BME280;46216;52.220;5.134;2023-04-19T08:29:20;102906.78;;;11.54;92.45
60373;BME280;46216;52.220;5.134;2023-04-19T08:31:46;102908.72;;;11.71;93.35
60373;BME280;46216;52.220;5.134;2023-04-19T08:34:11;102904.53;;;11.65;92.54
60373;BME280;46216;52.220;5.134;2023-04-19T08:36:37;102915.22;;;11.65;91.87
60373;BME280;46216;52.220;5.134;2023-04-19T08:39:02;102914.13;;;11.69;91.12
60373;BME280;46216;52.220;5.134;2023-04-19T08:41:29;102907.44;;;11.79;92.13
60373;BME280;46216;52.220;5.134;2023-04-19T08:43:55;102919.63;;;11.87;92.64
60373;BME280;46216;52.220;5.134;2023-04-19T08:46:22;102898.34;;;11.83;92.08
60373;BME280;46216;52.220;5.134;2023-04-19T08:48:49;102896.22;;;11.92;91.99
60373;BME280;46216;52.220;5.134;2023-04-19T08:51:16;102894.34;;;11.94;91.56
60373;BME280;46216;52.220;5.134;2023-04-19T08:53:43;102894.00;;;12.01;91.50
60373;BME280;46216;52.220;5.134;2023-04-19T08:56:08;102898.44;;;12.02;89.38
60373;BME280;46216;52.220;5.134;2023-04-19T08:58:35;102895.31;;;11.93;88.55
60373;BME280;46216;52.220;5.134;2023-04-19T09:01:03;102902.47;;;11.92;87.03
60373;BME280;46216;52.220;5.134;2023-04-19T09:03:28;102897.53;;;12.02;87.95
60373;BME280;46216;52.220;5.134;2023-04-19T09:05:54;102900.75;;;12.10;89.16
60373;BME280;46216;52.220;5.134;2023-04-19T09:08:25;102892.84;;;12.07;87.52
60373;BME280;46216;52.220;5.134;2023-04-19T09:10:57;102884.63;;;12.12;87.33
60373;BME280;46216;52.220;5.134;2023-04-19T09:13:24;102906.22;;;12.26;88.34
60373;BME280;46216;52.220;5.134;2023-04-19T09:15:50;102885.41;;;12.32;87.26
60373;BME280;46216;52.220;5.134;2023-04-19T09:18:17;102892.66;;;12.30;83.14
60373;BME280;46216;52.220;5.134;2023-04-19T09:20:44;102893.97;;;12.41;82.13
60373;BME280;46216;52.220;5.134;2023-04-19T09:23:14;102891.06;;;12.45;81.69
60373;BME280;46216;52.220;5.134;2023-04-19T09:25:54;102895.38;;;12.48;81.29
60373;BME280;46216;52.220;5.134;2023-04-19T09:28:21;102889.38;;;12.62;82.43
60373;BME280;46216;52.220;5.134;2023-04-19T09:30:47;102890.75;;;12.70;80.76
60373;BME280;46216;52.220;5.134;2023-04-19T09:33:12;102878.00;;;12.75;79.66
60373;BME280;46216;52.220;5.134;2023-04-19T09:35:42;102883.78;;;12.66;77.60
60373;BME280;46216;52.220;5.134;2023-04-19T09:38:09;102879.84;;;12.92;78.95
60373;BME280;46216;52.220;5.134;2023-04-19T09:40:36;102878.03;;;12.93;76.00
60373;BME280;46216;52.220;5.134;2023-04-19T09:43:01;102868.28;;;13.09;77.57
60373;BME280;46216;52.220;5.134;2023-04-19T09:45:38;102869.53;;;13.19;76.65
60373;BME280;46216;52.220;5.134;2023-04-19T09:48:05;102863.59;;;13.32;76.34
60373;BME280;46216;52.220;5.134;2023-04-19T09:50:31;102874.59;;;13.43;75.91
60373;BME280;46216;52.220;5.134;2023-04-19T09:52:57;102872.22;;;13.54;76.81
60373;BME280;46216;52.220;5.134;2023-04-19T09:55:24;102870.78;;;13.64;76.18
60373;BME280;46216;52.220;5.134;2023-04-19T09:57:51;102873.31;;;13.67;74.86
60373;BME280;46216;52.220;5.134;2023-04-19T10:00:17;102867.69;;;13.89;76.46
60373;BME280;46216;52.220;5.134;2023-04-19T10:02:44;102875.41;;;14.11;77.15
60373;BME280;46216;52.220;5.134;2023-04-19T10:05:14;102872.81;;;14.26;79.52
60373;BME280;46216;52.220;5.134;2023-04-19T10:07:40;102864.31;;;14.33;78.69
60373;BME280;46216;52.220;5.134;2023-04-19T10:10:06;102867.97;;;14.48;78.32
60373;BME280;46216;52.220;5.134;2023-04-19T10:12:34;102860.88;;;14.63;76.54
60373;BME280;46216;52.220;5.134;2023-04-19T10:14:59;102877.75;;;14.49;71.96
60373;BME280;46216;52.220;5.134;2023-04-19T10:17:25;102853.88;;;14.60;72.71
60373;BME280;46216;52.220;5.134;2023-04-19T10:19:56;102863.56;;;14.63;70.62
60373;BME280;46216;52.220;5.134;2023-04-19T10:22:24;102850.59;;;14.71;70.64
60373;BME280;46216;52.220;5.134;2023-04-19T10:25:13;102852.66;;;14.82;70.17
60373;BME280;46216;52.220;5.134;2023-04-19T10:27:43;102842.91;;;14.95;70.82
60373;BME280;46216;52.220;5.134;2023-04-19T10:30:20;102830.34;;;14.96;68.89
60373;BME280;46216;52.220;5.134;2023-04-19T10:32:54;102846.91;;;14.88;67.66
60373;BME280;46216;52.220;5.134;2023-04-19T10:35:27;102838.56;;;15.23;68.98
60373;BME280;46216;52.220;5.134;2023-04-19T10:38:11;102838.59;;;15.37;69.11
60373;BME280;46216;52.220;5.134;2023-04-19T10:40:56;102831.50;;;15.36;66.70
60373;BME280;46216;52.220;5.134;2023-04-19T10:45:51;102820.28;;;15.72;66.30
60373;BME280;46216;52.220;5.134;2023-04-19T10:51:15;102825.38;;;15.91;57.93
60373;BME280;46216;52.220;5.134;2023-04-19T10:56:08;102828.22;;;16.17;53.63
60373;BME280;46216;52.220;5.134;2023-04-19T11:04:14;102809.84;;;16.50;51.64
60373;BME280;46216;52.220;5.134;2023-04-19T11:11:49;102808.53;;;17.48;53.99
60373;BME280;46216;52.220;5.134;2023-04-19T11:14:14;102800.78;;;17.57;53.20
60373;BME280;46216;52.220;5.134;2023-04-19T11:16:40;102796.81;;;17.49;50.90
60373;BME280;46216;52.220;5.134;2023-04-19T11:19:06;102798.41;;;17.65;50.45
60373;BME280;46216;52.220;5.134;2023-04-19T11:21:31;102793.03;;;17.78;48.83
60373;BME280;46216;52.220;5.134;2023-04-19T11:24:10;102791.69;;;18.20;48.13
60373;BME280;46216;52.220;5.134;2023-04-19T11:26:36;102799.94;;;18.42;47.32
60373;BME280;46216;52.220;5.134;2023-04-19T11:29:02;102777.09;;;18.35;46.47
60373;BME280;46216;52.220;5.134;2023-04-19T11:31:31;102787.84;;;17.87;41.48
60373;BME280;46216;52.220;5.134;2023-04-19T11:33:57;102773.59;;;17.85;40.56
60373;BME280;46216;52.220;5.134;2023-04-19T11:36:24;102771.13;;;18.06;40.36
60373;BME280;46216;52.220;5.134;2023-04-19T11:38:50;102771.63;;;18.24;39.24
60373;BME280;46216;52.220;5.134;2023-04-19T11:41:16;102777.94;;;18.12;38.57
60373;BME280;46216;52.220;5.134;2023-04-19T11:43:41;102761.78;;;18.23;40.01
60373;BME280;46216;52.220;5.134;2023-04-19T11:46:10;102758.16;;;17.87;39.59
60373;BME280;46216;52.220;5.134;2023-04-19T11:48:37;102755.00;;;17.93;38.99
60373;BME280;46216;52.220;5.134;2023-04-19T11:51:03;102757.22;;;18.00;38.83
60373;BME280;46216;52.220;5.134;2023-04-19T11:53:30;102756.16;;;18.02;38.49
60373;BME280;46216;52.220;5.134;2023-04-19T11:56:06;102743.34;;;18.17;35.42
60373;BME280;46216;52.220;5.134;2023-04-19T11:58:44;102755.13;;;18.16;35.75
60373;BME280;46216;52.220;5.134;2023-04-19T12:01:20;102735.09;;;18.07;36.22
60373;BME280;46216;52.220;5.134;2023-04-19T12:03:47;102743.34;;;18.17;36.85
60373;BME280;46216;52.220;5.134;2023-04-19T12:06:31;102731.31;;;17.73;35.36
60373;BME280;46216;52.220;5.134;2023-04-19T12:08:56;102729.22;;;18.37;37.27
60373;BME280;46216;52.220;5.134;2023-04-19T12:11:41;102736.34;;;18.38;37.09
60373;BME280;46216;52.220;5.134;2023-04-19T12:14:08;102744.97;;;18.19;36.89
60373;BME280;46216;52.220;5.134;2023-04-19T12:16:34;102746.31;;;18.14;35.98
60373;BME280;46216;52.220;5.134;2023-04-19T12:19:09;102741.97;;;18.35;36.60
60373;BME280;46216;52.220;5.134;2023-04-19T12:21:36;102744.22;;;18.41;36.87
60373;BME280;46216;52.220;5.134;2023-04-19T12:24:01;102744.97;;;18.19;35.25
60373;BME280;46216;52.220;5.134;2023-04-19T12:26:28;102738.34;;;18.00;34.39
60373;BME280;46216;52.220;5.134;2023-04-19T12:28:54;102744.38;;;18.03;35.03
60373;BME280;46216;52.220;5.134;2023-04-19T12:31:19;102742.84;;;18.12;35.80
60373;BME280;46216;52.220;5.134;2023-04-19T12:33:45;102746.44;;;18.00;34.64
60373;BME280;46216;52.220;5.134;2023-04-19T12:36:11;102740.16;;;18.12;35.43
60373;BME280;46216;52.220;5.134;2023-04-19T12:38:36;102735.84;;;18.09;35.53
60373;BME280;46216;52.220;5.134;2023-04-19T12:41:02;102728.19;;;18.27;35.54
60373;BME280;46216;52.220;5.134;2023-04-19T12:43:27;102731.78;;;18.63;35.82
60373;BME280;46216;52.220;5.134;2023-04-19T12:45:54;102724.91;;;18.59;35.76
60373;BME280;46216;52.220;5.134;2023-04-19T12:48:20;102719.31;;;18.14;34.34
60373;BME280;46216;52.220;5.134;2023-04-19T12:50:45;102722.50;;;18.19;35.95
60373;BME280;46216;52.220;5.134;2023-04-19T12:53:11;102723.03;;;18.24;35.32
60373;BME280;46216;52.220;5.134;2023-04-19T12:55:36;102718.16;;;18.29;36.24
60373;BME280;46216;52.220;5.134;2023-04-19T12:58:01;102712.72;;;17.94;35.87
60373;BME280;46216;52.220;5.134;2023-04-19T13:00:27;102706.91;;;18.11;36.55
60373;BME280;46216;52.220;5.134;2023-04-19T13:02:54;102715.56;;;18.28;37.18
60373;BME280;46216;52.220;5.134;2023-04-19T13:05:19;102703.53;;;18.56;37.28